Time;durP1;ratioP1;P1;durP2;ratioP2;P2;SDS_P1;SDS_P2;PMS_P1;PMS_P2;Temp;Humidity;BMP_temperature;BMP_pressure;BME280_temperature;BME280_humidity;BME280_pressure;Samples;Min_cycle;Max_cycle;Signal;HPM_P1;HPM_P2
2024/03/31 00:00:22;;;;;;;7.73;1.83;;;;;;;11.49;100.00;94566.44;5018026;28;20253;-73
2024/03/31 00:02:49;;;;;;;6.63;1.20;;;;;;;11.48;100.00;94569.31;5016511;28;20697;-72
2024/03/31 00:05:14;;;;;;;6.27;1.40;;;;;;;11.53;100.00;94574.75;5023563;28;20202;-73
2024/03/31 00:07:41;;;;;;;10.70;1.70;;;;;;;11.55;100.00;94578.78;5023059;28;20232;-73
2024/03/31 00:10:09;;;;;;;9.47;1.83;;;;;;;11.52;100.00;94589.78;5022522;28;20225;-74
2024/03/31 00:12:36;;;;;;;5.33;1.10;;;;;;;11.47;100.00;94592.25;5023342;28;20202;-74
2024/03/31 00:15:01;;;;;;;4.97;1.87;;;;;;;11.42;100.00;94596.56;5024948;28;20206;-73
2024/03/31 00:17:28;;;;;;;10.77;2.37;;;;;;;11.44;100.00;94612.97;5023753;28;20197;-74
2024/03/31 00:19:54;;;;;;;14.30;2.63;;;;;;;11.45;100.00;94615.38;5025676;28;20217;-72
2024/03/31 00:22:21;;;;;;;11.87;2.63;;;;;;;11.42;100.00;94634.28;5023219;28;20206;-74
2024/03/31 00:24:46;;;;;;;12.20;1.97;;;;;;;11.48;100.00;94640.50;5023568;28;20197;-73
2024/03/31 00:27:14;;;;;;;8.67;1.93;;;;;;;11.62;100.00;94653.34;5023060;28;20546;-71
2024/03/31 00:29:39;;;;;;;15.20;1.80;;;;;;;11.16;100.00;94674.13;5022631;28;20225;-71
2024/03/31 00:32:07;;;;;;;13.47;2.50;;;;;;;11.44;100.00;94689.47;5021513;28;20212;-74
2024/03/31 00:34:33;;;;;;;6.90;2.23;;;;;;;11.41;100.00;94703.88;5024098;28;20197;-72
2024/03/31 00:36:59;;;;;;;8.70;1.77;;;;;;;11.46;100.00;94725.13;5024915;28;20200;-74
2024/03/31 00:39:25;;;;;;;11.70;1.87;;;;;;;11.49;100.00;94745.78;5021488;28;20237;-73
2024/03/31 00:41:52;;;;;;;7.70;1.63;;;;;;;11.33;100.00;94754.28;5023060;28;20194;-72
2024/03/31 00:44:18;;;;;;;25.00;3.33;;;;;;;11.52;100.00;94763.03;5023656;28;20249;-74
2024/03/31 00:46:45;;;;;;;5.83;2.17;;;;;;;11.30;100.00;94767.09;5022911;28;20844;-73
2024/03/31 00:49:10;;;;;;;11.90;1.80;;;;;;;11.77;100.00;94770.72;5021737;28;20228;-74
2024/03/31 00:51:37;;;;;;;8.23;1.97;;;;;;;11.70;100.00;94769.97;5024298;28;20587;-74
2024/03/31 00:54:03;;;;;;;8.30;1.43;;;;;;;11.82;100.00;94781.38;5021106;28;20216;-71
2024/03/31 00:56:29;;;;;;;14.03;1.90;;;;;;;11.73;100.00;94772.16;5021451;28;20209;-73
2024/03/31 00:58:55;;;;;;;7.53;1.50;;;;;;;11.91;100.00;94772.16;5022309;28;20228;-73
2024/03/31 01:01:24;;;;;;;3.20;1.53;;;;;;;11.98;100.00;94767.63;5022423;28;20202;-73
2024/03/31 01:03:49;;;;;;;11.67;2.00;;;;;;;12.16;100.00;94784.25;5023750;28;20260;-74
2024/03/31 01:06:19;;;;;;;16.63;2.10;;;;;;;12.30;100.00;94780.41;5022134;28;20964;-73
2024/03/31 01:08:46;;;;;;;9.90;2.37;;;;;;;12.26;100.00;94779.25;5021448;28;20232;-72
2024/03/31 01:11:13;;;;;;;12.63;1.47;;;;;;;12.12;100.00;94781.47;5022994;28;20291;-71
2024/03/31 01:13:40;;;;;;;8.87;2.20;;;;;;;12.07;100.00;94776.84;5021883;28;20617;-74
2024/03/31 01:16:07;;;;;;;3.40;1.40;;;;;;;12.07;100.00;94776.84;5022817;28;20205;-74
2024/03/31 01:18:34;;;;;;;10.23;1.30;;;;;;;12.27;100.00;94780.88;5020608;28;20226;-74
2024/03/31 01:21:00;;;;;;;11.90;1.53;;;;;;;12.17;100.00;94775.31;5020497;28;20241;-73
2024/03/31 01:23:31;;;;;;;6.47;1.87;;;;;;;12.29;100.00;94773.50;5024161;28;20204;-74
2024/03/31 01:26:01;;;;;;;13.80;2.30;;;;;;;12.55;100.00;94767.09;5022811;28;20328;-71
2024/03/31 01:28:27;;;;;;;7.23;2.10;;;;;;;12.46;100.00;94781.63;5018985;28;21091;-71
2024/03/31 01:30:53;;;;;;;8.80;1.60;;;;;;;12.38;100.00;94774.81;5022410;28;20202;-73
2024/03/31 01:33:19;;;;;;;5.70;1.10;;;;;;;12.27;100.00;94764.19;5022682;28;20607;-72
2024/03/31 01:35:45;;;;;;;6.40;1.30;;;;;;;12.38;100.00;94750.25;5024596;28;20197;-73
2024/03/31 01:38:11;;;;;;;8.37;1.40;;;;;;;12.56;100.00;94711.38;5020485;28;20213;-73
2024/03/31 01:40:38;;;;;;;22.07;1.83;;;;;;;12.56;100.00;94669.09;5019700;28;21340;-74
2024/03/31 01:43:05;;;;;;;16.83;2.53;;;;;;;12.88;100.00;94588.50;5019634;28;20371;-74
2024/03/31 01:45:32;;;;;;;8.70;1.17;;;;;;;12.73;100.00;94558.25;5022587;28;20208;-74
2024/03/31 01:47:57;;;;;;;9.17;1.70;;;;;;;12.53;100.00;94563.88;5021752;28;20222;-74
2024/03/31 01:50:24;;;;;;;11.33;1.00;;;;;;;12.47;100.00;94564.78;5020399;28;20731;-72
2024/03/31 01:52:49;;;;;;;9.53;1.23;;;;;;;12.40;100.00;94558.03;5023195;28;20552;-74
2024/03/31 01:55:16;;;;;;;10.10;1.10;;;;;;;12.50;100.00;94574.09;5019792;28;20671;-73
2024/03/31 01:57:41;;;;;;;2.60;1.20;;;;;;;12.47;100.00;94564.78;5022601;28;20205;-74
2024/03/31 02:00:11;;;;;;;11.00;1.20;;;;;;;12.64;100.00;94570.19;5022742;28;20230;-74
2024/03/31 02:02:36;;;;;;;10.53;1.40;;;;;;;12.46;100.00;94576.41;5021989;28;20202;-72
2024/03/31 02:05:03;;;;;;;6.97;1.90;;;;;;;12.45;100.00;94577.44;5023964;28;20768;-72
2024/03/31 02:07:29;;;;;;;8.50;1.50;;;;;;;12.02;100.00;94583.22;5021099;28;21013;-74
2024/03/31 02:09:55;;;;;;;4.67;1.60;;;;;;;12.40;100.00;94595.81;5020939;28;20222;-74
2024/03/31 02:12:21;;;;;;;8.57;2.03;;;;;;;12.39;100.00;94586.25;5021921;28;20499;-74
2024/03/31 02:14:47;;;;;;;13.47;1.40;;;;;;;12.39;100.00;94548.50;5021214;28;20202;-72
2024/03/31 02:17:14;;;;;;;17.63;2.70;;;;;;;12.41;100.00;94573.66;5024611;28;20201;-72
2024/03/31 02:19:41;;;;;;;10.00;1.80;;;;;;;12.07;100.00;94613.19;5020872;28;20253;-74
2024/03/31 02:22:06;;;;;;;10.33;2.00;;;;;;;12.37;100.00;94582.22;5022597;28;20594;-75
2024/03/31 02:24:33;;;;;;;12.30;2.47;;;;;;;12.37;100.00;94580.41;5024138;28;20194;-75
2024/03/31 02:26:58;;;;;;;11.00;1.83;;;;;;;12.47;100.00;94574.56;5022331;28;21095;-71
2024/03/31 02:29:25;;;;;;;5.43;1.57;;;;;;;12.60;100.00;94583.09;5020303;28;20226;-74
2024/03/31 02:31:51;;;;;;;6.60;1.10;;;;;;;12.54;100.00;94584.00;5021946;28;20473;-72
2024/03/31 02:34:19;;;;;;;5.07;1.10;;;;;;;12.54;100.00;94577.91;5024938;28;20198;-74
2024/03/31 02:36:48;;;;;;;5.97;1.23;;;;;;;12.25;100.00;94582.22;5020693;28;20730;-74
2024/03/31 02:39:15;;;;;;;11.07;2.03;;;;;;;11.88;100.00;94581.78;5018842;28;20602;-73
2024/03/31 02:41:40;;;;;;;10.20;1.50;;;;;;;11.81;100.00;94567.88;5022374;28;20475;-71
2024/03/31 02:44:07;;;;;;;6.50;1.97;;;;;;;11.56;100.00;94585.66;5020162;28;20592;-74
2024/03/31 02:46:32;;;;;;;7.23;1.50;;;;;;;11.59;100.00;94590.50;5021599;28;20212;-73
2024/03/31 02:52:22;;;;;;;4.53;1.30;;;;;;;11.58;100.00;94573.88;5019996;28;20205;-74
2024/03/31 02:54:48;;;;;;;10.33;1.47;;;;;;;11.36;100.00;94579.78;5023113;28;20664;-74
2024/03/31 02:57:14;;;;;;;6.37;1.63;;;;;;;11.32;100.00;94568.09;5023999;28;20201;-71
2024/03/31 02:59:40;;;;;;;10.70;1.40;;;;;;;11.01;100.00;94570.88;5023503;28;20225;-74
2024/03/31 03:02:06;;;;;;;4.83;1.43;;;;;;;10.93;100.00;94566.94;5026560;28;20680;-71
2024/03/31 03:04:34;;;;;;;6.87;1.50;;;;;;;10.95;100.00;94568.31;5021577;28;20198;-73
2024/03/31 03:07:00;;;;;;;4.00;1.17;;;;;;;10.81;100.00;94555.50;5029970;28;20467;-73
2024/03/31 03:09:27;;;;;;;6.57;1.03;;;;;;;10.63;100.00;94539.69;5025826;28;20228;-74
2024/03/31 03:11:54;;;;;;;11.60;1.50;;;;;;;10.34;100.00;94548.25;5022000;28;20292;-74
2024/03/31 03:14:19;;;;;;;10.93;1.77;;;;;;;10.29;100.00;94542.84;5028823;28;20405;-74
2024/03/31 03:16:46;;;;;;;7.47;2.20;;;;;;;10.43;100.00;94554.88;5022560;28;20206;-73
2024/03/31 03:19:11;;;;;;;7.67;1.80;;;;;;;10.37;100.00;94551.28;5024867;28;20420;-73
2024/03/31 03:21:38;;;;;;;10.00;1.57;;;;;;;10.45;100.00;94552.81;5024635;28;20212;-72
2024/03/31 03:24:04;;;;;;;3.70;1.10;;;;;;;10.45;100.00;94552.81;5022476;28;20951;-71
2024/03/31 03:26:32;;;;;;;4.43;1.80;;;;;;;10.34;100.00;94546.41;5021481;28;20210;-73
2024/03/31 03:28:58;;;;;;;3.87;1.20;;;;;;;10.05;100.00;94551.53;5022131;28;20603;-72
2024/03/31 03:31:24;;;;;;;5.23;1.20;;;;;;;9.87;100.00;94543.53;5021700;28;20201;-72
2024/03/31 03:33:50;;;;;;;12.67;1.63;;;;;;;9.97;100.00;94543.91;5023338;28;21624;-71
2024/03/31 03:36:16;;;;;;;4.33;1.23;;;;;;;9.93;100.00;94547.97;5021828;28;20544;-74
2024/03/31 03:38:44;;;;;;;2.07;0.90;;;;;;;9.88;100.00;94547.78;5022107;28;20226;-71
2024/03/31 03:41:10;;;;;;;4.90;1.80;;;;;;;9.66;100.00;94544.91;5026094;28;20209;-72
2024/03/31 03:43:38;;;;;;;4.13;0.90;;;;;;;9.68;100.00;94542.88;5020510;28;20206;-74
2024/03/31 03:46:05;;;;;;;11.50;1.57;;;;;;;9.59;100.00;94554.69;5019526;28;20206;-73
2024/03/31 03:48:31;;;;;;;6.00;1.50;;;;;;;9.56;100.00;94550.66;5021392;28;20225;-74
2024/03/31 03:51:02;;;;;;;9.60;1.30;;;;;;;9.66;100.00;94539.66;5020010;28;20211;-72
2024/03/31 03:53:27;;;;;;;5.67;1.00;;;;;;;9.36;100.00;94547.31;5024691;28;20209;-74
2024/03/31 03:55:54;;;;;;;10.17;2.20;;;;;;;9.19;100.00;94540.94;5023841;28;20217;-71
2024/03/31 03:58:19;;;;;;;6.10;1.20;;;;;;;9.27;100.00;94545.94;5023579;28;20208;-72
2024/03/31 04:00:47;;;;;;;8.17;1.50;;;;;;;9.27;100.00;94555.66;5024147;28;20201;-74
2024/03/31 04:03:12;;;;;;;5.57;1.30;;;;;;;9.00;100.00;94556.78;5023124;28;20239;-74
2024/03/31 04:05:40;;;;;;;8.90;1.50;;;;;;;9.28;100.00;94552.81;5020970;28;20202;-73
2024/03/31 04:08:06;;;;;;;4.87;0.97;;;;;;;9.42;100.00;94549.09;5020977;28;20218;-71
2024/03/31 04:10:39;;;;;;;2.57;1.23;;;;;;;9.09;100.00;94550.28;5023105;28;20241;-74
2024/03/31 04:13:04;;;;;;;12.67;2.00;;;;;;;8.80;100.00;94557.84;5020807;28;20205;-73
2024/03/31 04:15:31;;;;;;;7.50;1.90;;;;;;;8.97;100.00;94562.44;5020737;28;21169;-72
2024/03/31 04:17:58;;;;;;;4.10;1.30;;;;;;;9.27;100.00;94566.97;5024564;28;20691;-74
2024/03/31 04:20:24;;;;;;;1.80;1.10;;;;;;;9.05;100.00;94556.97;5019513;28;20703;-74
2024/03/31 04:22:50;;;;;;;2.47;1.40;;;;;;;8.88;100.00;94563.66;5019544;28;20220;-74
2024/03/31 04:25:17;;;;;;;9.70;1.67;;;;;;;8.85;100.00;94571.97;5022881;28;20593;-74
2024/03/31 04:27:42;;;;;;;11.40;1.40;;;;;;;8.88;100.00;94561.03;5021130;28;20229;-73
2024/03/31 04:30:09;;;;;;;4.87;1.10;;;;;;;8.90;100.00;94564.28;5019953;28;20570;-74
2024/03/31 04:32:35;;;;;;;3.43;1.07;;;;;;;8.79;100.00;94562.28;5020957;28;20607;-71
2024/03/31 04:35:03;;;;;;;8.87;1.30;;;;;;;8.78;100.00;94575.63;5024309;28;20208;-73
2024/03/31 04:37:28;;;;;;;5.77;1.73;;;;;;;8.70;100.00;94567.97;5021079;28;20287;-73
2024/03/31 04:39:55;;;;;;;4.93;1.33;;;;;;;8.71;100.00;94564.34;5021548;28;20598;-70
2024/03/31 04:42:21;;;;;;;4.17;1.33;;;;;;;8.68;100.00;94565.56;5020342;28;20311;-73
2024/03/31 04:44:47;;;;;;;11.70;1.33;;;;;;;8.63;100.00;94561.91;5021048;28;20205;-72
2024/03/31 04:47:13;;;;;;;6.80;1.30;;;;;;;8.71;100.00;94570.38;5019316;28;20628;-73
2024/03/31 04:49:42;;;;;;;6.47;1.20;;;;;;;8.80;100.00;94577.03;5020065;28;20237;-71
2024/03/31 04:52:09;;;;;;;6.10;1.53;;;;;;;8.70;100.00;94581.91;5022277;28;20213;-71
2024/03/31 04:54:35;;;;;;;7.00;1.33;;;;;;;8.53;100.00;94579.94;5021362;28;20233;-73
2024/03/31 04:57:01;;;;;;;3.83;1.50;;;;;;;8.55;100.00;94594.47;5023403;28;20217;-72
2024/03/31 04:59:28;;;;;;;3.77;0.93;;;;;;;8.48;100.00;94589.41;5023522;28;20712;-73
2024/03/31 05:01:54;;;;;;;6.43;1.40;;;;;;;8.55;100.00;94594.47;5026573;28;20204;-70
2024/03/31 05:04:20;;;;;;;6.67;0.87;;;;;;;8.51;100.00;94609.00;5021835;28;20202;-70
2024/03/31 05:06:46;;;;;;;7.97;1.80;;;;;;;8.43;100.00;94603.16;5021925;28;20369;-73
2024/03/31 05:09:14;;;;;;;4.80;1.63;;;;;;;8.69;100.00;94603.13;5023035;28;20229;-73
2024/03/31 05:11:39;;;;;;;1.73;1.17;;;;;;;8.28;100.00;94609.63;5021851;28;20574;-70
2024/03/31 05:14:06;;;;;;;6.03;1.60;;;;;;;8.38;100.00;94610.81;5023958;28;20201;-69
2024/03/31 05:16:31;;;;;;;5.93;1.60;;;;;;;8.60;100.00;94610.41;5021662;28;20204;-73
2024/03/31 05:18:58;;;;;;;2.63;1.30;;;;;;;8.35;100.00;94611.25;5022404;28;20221;-70
2024/03/31 05:21:23;;;;;;;1.37;0.83;;;;;;;8.53;100.00;94625.34;5020661;28;20695;-70
2024/03/31 05:23:50;;;;;;;8.97;1.57;;;;;;;8.68;100.00;94612.81;5023345;28;20370;-72
2024/03/31 05:26:17;;;;;;;5.50;1.20;;;;;;;8.99;100.00;94605.06;5021202;28;20606;-73
2024/03/31 05:28:43;;;;;;;4.50;1.43;;;;;;;8.81;100.00;94607.53;5021377;28;20970;-71
2024/03/31 05:31:09;;;;;;;9.33;1.50;;;;;;;8.87;100.00;94608.53;5022930;28;20202;-70
2024/03/31 05:33:35;;;;;;;9.77;1.63;;;;;;;8.85;100.00;94608.75;5021487;28;20205;-71
2024/03/31 05:36:01;;;;;;;2.97;1.20;;;;;;;8.92;100.00;94601.63;5024566;28;20608;-73
2024/03/31 05:38:27;;;;;;;10.43;2.30;;;;;;;8.93;100.00;94599.84;5020262;28;20404;-72
2024/03/31 05:40:53;;;;;;;7.00;1.40;;;;;;;8.94;100.00;94612.75;5021396;28;20212;-71
2024/03/31 05:43:21;;;;;;;13.77;1.43;;;;;;;9.21;100.00;94615.09;5021550;28;20597;-70
2024/03/31 05:45:46;;;;;;;4.60;1.30;;;;;;;9.20;100.00;94617.91;5024396;28;20206;-70
2024/03/31 05:48:13;;;;;;;4.57;1.07;;;;;;;9.28;100.00;94620.34;5021310;28;20602;-71
2024/03/31 05:50:40;;;;;;;2.53;0.80;;;;;;;9.18;100.00;94614.72;5022663;28;20202;-72
2024/03/31 05:53:07;;;;;;;6.83;1.30;;;;;;;9.24;100.00;94609.44;5020679;28;20230;-73
2024/03/31 05:55:32;;;;;;;13.27;1.90;;;;;;;9.19;100.00;94611.88;5021023;28;20201;-71
2024/03/31 05:57:59;;;;;;;11.47;1.63;;;;;;;9.22;100.00;94618.53;5020920;28;20202;-72
2024/03/31 06:00:26;;;;;;;3.57;1.00;;;;;;;9.54;100.00;94610.50;5023284;28;20226;-72
2024/03/31 06:02:53;;;;;;;10.43;1.77;;;;;;;9.59;100.00;94607.25;5021686;28;20206;-71
2024/03/31 06:05:19;;;;;;;8.03;1.33;;;;;;;9.59;100.00;94602.00;5022267;28;21147;-71
2024/03/31 06:07:48;;;;;;;8.83;1.33;;;;;;;9.76;100.00;94604.72;5025778;28;20202;-71
2024/03/31 06:10:13;;;;;;;2.17;1.20;;;;;;;9.74;100.00;94598.88;5020221;28;20233;-72
2024/03/31 06:12:40;;;;;;;4.03;1.03;;;;;;;9.73;100.00;94599.88;5022060;28;20658;-73
2024/03/31 06:15:06;;;;;;;2.77;1.20;;;;;;;9.76;100.00;94599.47;5024022;28;20201;-71
2024/03/31 06:17:34;;;;;;;1.37;0.97;;;;;;;9.93;100.00;94599.78;5023844;28;20694;-72
2024/03/31 06:19:59;;;;;;;7.23;1.20;;;;;;;9.66;100.00;94598.31;5022347;28;20656;-71
2024/03/31 06:22:26;;;;;;;5.47;1.47;;;;;;;9.75;100.00;94602.31;5024498;28;20204;-71
2024/03/31 06:24:51;;;;;;;5.70;1.57;;;;;;;9.74;100.00;94590.97;5021599;28;20213;-71
2024/03/31 06:27:18;;;;;;;7.87;1.60;;;;;;;9.85;100.00;94589.50;5025657;28;20201;-73
2024/03/31 06:29:47;;;;;;;14.37;1.90;;;;;;;9.96;100.00;94589.66;5018474;28;20226;-72
2024/03/31 06:32:14;;;;;;;4.30;1.10;;;;;;;9.78;100.00;94586.91;5021814;28;20287;-71
2024/03/31 06:34:41;;;;;;;4.47;1.30;;;;;;;10.02;100.00;94583.53;5021723;28;20212;-71
2024/03/31 06:37:07;;;;;;;10.30;1.73;;;;;;;9.98;100.00;94582.34;5024110;28;20202;-73
2024/03/31 06:39:33;;;;;;;3.57;1.40;;;;;;;9.98;100.00;94574.47;5023044;28;20232;-73
2024/03/31 06:41:59;;;;;;;11.33;1.60;;;;;;;9.78;100.00;94565.84;5021492;28;20239;-73
2024/03/31 06:44:25;;;;;;;6.40;1.60;;;;;;;10.00;100.00;94561.88;5022529;28;20209;-73
2024/03/31 06:46:51;;;;;;;6.33;1.40;;;;;;;10.04;100.00;94549.94;5027637;28;20691;-71
2024/03/31 06:49:17;;;;;;;9.50;2.10;;;;;;;10.21;100.00;94551.00;5017776;28;20225;-73
2024/03/31 06:51:45;;;;;;;3.13;1.63;;;;;;;10.75;100.00;94543.19;5023797;28;20250;-70
2024/03/31 06:54:10;;;;;;;8.33;1.90;;;;;;;10.69;100.00;94544.06;5020498;28;20443;-73
2024/03/31 06:56:37;;;;;;;4.47;1.77;;;;;;;10.71;100.00;94548.09;5021695;28;20440;-72
2024/03/31 06:59:02;;;;;;;5.30;1.70;;;;;;;10.92;100.00;94546.88;5024608;28;20225;-73
2024/03/31 07:01:29;;;;;;;8.07;2.07;;;;;;;10.96;100.00;94556.75;5019242;28;20204;-72
2024/03/31 07:03:55;;;;;;;3.73;1.83;;;;;;;11.01;100.00;94559.56;5027056;28;20205;-72
2024/03/31 07:06:21;;;;;;;6.90;1.90;;;;;;;11.04;100.00;94554.63;5020991;28;20210;-72
2024/03/31 07:08:48;;;;;;;5.10;1.53;;;;;;;11.39;100.00;94558.28;5021381;28;20222;-73
2024/03/31 07:11:15;;;;;;;6.83;1.70;;;;;;;11.31;100.00;94561.19;5023198;28;20202;-73
2024/03/31 07:13:41;;;;;;;5.13;1.60;;;;;;;11.24;100.00;94578.94;5024874;28;21269;-74
2024/03/31 07:16:10;;;;;;;12.37;2.03;;;;;;;11.38;100.00;94569.84;5023993;28;20205;-74
2024/03/31 07:18:36;;;;;;;10.33;2.83;;;;;;;11.50;100.00;94568.09;5021158;28;20217;-75
2024/03/31 07:21:02;;;;;;;4.47;1.90;;;;;;;11.73;100.00;94555.00;5020831;28;20251;-74
2024/03/31 07:23:28;;;;;;;6.80;2.23;;;;;;;11.74;100.00;94540.78;5023315;28;20652;-73
2024/03/31 07:25:59;;;;;;;7.80;2.07;;;;;;;11.36;100.00;94542.88;5024647;28;20209;-75
2024/03/31 07:28:25;;;;;;;7.10;2.00;;;;;;;11.55;100.00;94537.38;5022149;28;20881;-76
2024/03/31 07:30:52;;;;;;;5.87;1.80;;;;;;;11.87;100.00;94535.31;5022908;28;20206;-75
2024/03/31 07:33:18;;;;;;;8.80;1.87;;;;;;;12.12;100.00;94531.47;5023995;28;20202;-75
2024/03/31 07:35:45;;;;;;;12.40;2.17;;;;;;;12.20;100.00;94542.47;5022613;28;20211;-74
2024/03/31 07:38:10;;;;;;;7.83;1.90;;;;;;;12.37;100.00;94534.69;5023058;28;20210;-76
2024/03/31 07:40:37;;;;;;;6.10;2.23;;;;;;;12.45;100.00;94529.88;5022321;28;20228;-77
2024/03/31 07:43:04;;;;;;;9.63;1.70;;;;;;;12.71;100.00;94524.13;5021855;28;20396;-73
2024/03/31 07:45:31;;;;;;;12.40;2.33;;;;;;;12.64;100.00;94520.00;5019259;28;20244;-78
2024/03/31 07:47:56;;;;;;;11.70;2.27;;;;;;;12.59;100.00;94538.38;5031663;28;20201;-74
2024/03/31 07:50:23;;;;;;;9.10;1.87;;;;;;;12.68;100.00;94534.34;5028510;28;20610;-77
2024/03/31 07:52:48;;;;;;;16.50;2.20;;;;;;;12.61;100.00;94515.97;5020322;28;20202;-77
2024/03/31 07:55:15;;;;;;;8.60;1.70;;;;;;;12.68;100.00;94516.69;5029005;28;20556;-78
2024/03/31 07:57:41;;;;;;;16.67;2.50;;;;;;;12.99;100.00;94521.59;5025897;28;20702;-77
2024/03/31 08:00:09;;;;;;;5.13;2.80;;;;;;;13.16;100.00;94525.13;5024731;28;20222;-76
2024/03/31 08:02:35;;;;;;;7.50;2.70;;;;;;;12.94;100.00;94529.44;5025822;28;20207;-73
2024/03/31 08:05:01;;;;;;;8.83;2.33;;;;;;;13.08;100.00;94536.88;5024693;28;20205;-73
2024/03/31 08:07:27;;;;;;;6.77;2.07;;;;;;;13.04;100.00;94541.03;5032344;28;20215;-76
2024/03/31 08:09:54;;;;;;;12.57;1.93;;;;;;;13.16;100.00;94531.25;5029921;28;20225;-74
2024/03/31 08:12:19;;;;;;;10.90;2.27;;;;;;;13.17;100.00;94530.19;5029327;28;20205;-75
2024/03/31 08:14:47;;;;;;;16.40;2.67;;;;;;;13.09;100.00;94521.81;5030164;28;20683;-75
2024/03/31 08:17:14;;;;;;;16.40;2.60;;;;;;;13.42;100.00;94512.97;5025900;28;20209;-75
2024/03/31 08:19:41;;;;;;;7.90;2.13;;;;;;;13.21;100.00;94522.59;5030517;28;20227;-75
2024/03/31 08:22:07;;;;;;;11.50;2.17;;;;;;;13.39;100.00;94518.75;5026130;28;20586;-75
2024/03/31 08:24:33;;;;;;;8.50;2.07;;;;;;;13.43;100.00;94527.81;5027327;28;20205;-76
2024/03/31 08:26:59;;;;;;;15.00;1.97;;;;;;;13.54;100.00;94534.94;5029875;28;20209;-74
2024/03/31 08:29:25;;;;;;;8.10;1.80;;;;;;;13.60;100.00;94535.81;5027330;28;20888;-77
2024/03/31 08:31:51;;;;;;;22.17;2.30;;;;;;;13.76;100.00;94540.34;5026270;28;20205;-76
2024/03/31 08:34:18;;;;;;;14.03;1.93;;;;;;;13.74;100.00;94540.59;5032596;28;20209;-74
2024/03/31 08:36:44;;;;;;;12.23;1.83;;;;;;;13.64;100.00;94535.09;5031066;28;20198;-74
2024/03/31 08:39:10;;;;;;;10.10;1.67;;;;;;;13.77;100.00;94532.19;5030484;28;20715;-78
2024/03/31 08:41:42;;;;;;;7.60;2.80;;;;;;;13.84;100.00;94522.25;5025384;28;20209;-74
2024/03/31 08:44:15;;;;;;;6.70;2.13;;;;;;;13.96;100.00;94525.63;5032101;28;20213;-74
2024/03/31 08:46:41;;;;;;;10.53;1.80;;;;;;;14.05;100.00;94521.53;5028696;28;20259;-76
2024/03/31 08:49:08;;;;;;;7.23;1.80;;;;;;;13.98;100.00;94518.25;5031896;28;20230;-74
2024/03/31 08:51:34;;;;;;;10.23;1.50;;;;;;;14.17;100.00;94511.72;5026951;28;20201;-74
2024/03/31 08:54:01;;;;;;;6.27;1.67;;;;;;;14.04;100.00;94518.09;5025095;28;20233;-74
2024/03/31 08:56:26;;;;;;;6.27;1.17;;;;;;;14.12;100.00;94515.09;5031018;28;20205;-74
2024/03/31 08:58:54;;;;;;;7.22;2.15;;;;;;;14.16;100.00;94505.59;5029129;28;20225;-78
2024/03/31 09:01:21;;;;;;;11.07;2.38;;;;;;;14.29;100.00;94499.19;5026567;28;20202;-75
2024/03/31 09:03:49;;;;;;;9.27;1.65;;;;;;;13.91;100.00;94493.75;5023746;28;20703;-75
2024/03/31 09:06:15;;;;;;;6.63;1.83;;;;;;;14.02;100.00;94491.03;5024162;28;20686;-77
2024/03/31 09:08:43;;;;;;;3.50;2.03;;;;;;;14.02;100.00;94503.50;5029456;28;20232;-75
2024/03/31 09:11:08;;;;;;;14.67;1.87;;;;;;;14.09;100.00;94501.50;5031157;28;20208;-74
2024/03/31 09:13:35;;;;;;;13.65;1.55;;;;;;;14.20;100.00;94503.28;5030535;28;20205;-75
2024/03/31 09:16:01;;;;;;;4.93;1.23;;;;;;;14.40;100.00;94500.97;5025485;28;20210;-76
2024/03/31 09:18:28;;;;;;;7.53;1.45;;;;;;;14.27;100.00;94510.03;5022734;28;20206;-77
2024/03/31 09:20:54;;;;;;;10.83;1.90;;;;;;;14.70;100.00;94500.38;5025879;28;20213;-78
2024/03/31 09:23:21;;;;;;;4.27;1.67;;;;;;;14.80;100.00;94489.91;5023338;28;20248;-76
2024/03/31 09:25:48;;;;;;;11.20;2.00;;;;;;;14.98;100.00;94489.63;5018208;28;20206;-77
2024/03/31 09:28:15;;;;;;;5.53;1.53;;;;;;;15.32;100.00;94496.44;5020589;28;20758;-78
2024/03/31 09:30:41;;;;;;;5.60;1.42;;;;;;;15.50;100.00;94488.16;5022596;28;20314;-74
2024/03/31 09:33:08;;;;;;;7.03;1.45;;;;;;;15.67;100.00;94472.94;5024252;28;20713;-77
2024/03/31 09:35:33;;;;;;;7.05;1.63;;;;;;;15.63;100.00;94479.81;5017605;28;20205;-78
2024/03/31 09:38:00;;;;;;;16.50;3.15;;;;;;;15.51;100.00;94460.56;5027728;28;20213;-75
2024/03/31 09:40:25;;;;;;;12.98;3.25;;;;;;;15.55;100.00;94465.13;5016746;28;20901;-78
2024/03/31 09:42:53;;;;;;;5.20;1.85;;;;;;;15.99;100.00;94470.09;5020096;28;20198;-74
2024/03/31 09:45:19;;;;;;;9.43;2.03;;;;;;;16.46;100.00;94473.69;5020307;28;20198;-75
2024/03/31 09:47:48;;;;;;;7.32;1.42;;;;;;;16.34;98.76;94473.06;5021675;28;20381;-77
2024/03/31 09:50:20;;;;;;;10.82;1.35;;;;;;;16.20;97.63;94477.16;5019446;28;20979;-78
2024/03/31 09:52:52;;;;;;;9.75;1.95;;;;;;;16.61;95.85;94482.59;5020451;28;20206;-76
2024/03/31 09:55:22;;;;;;;19.38;1.88;;;;;;;16.49;95.70;94486.47;5020187;28;20198;-75
2024/03/31 09:57:51;;;;;;;8.68;2.28;;;;;;;16.10;100.00;94477.09;5020550;28;20198;-75
2024/03/31 10:00:18;;;;;;;11.35;1.88;;;;;;;16.19;100.00;94466.78;5019511;28;20212;-75
2024/03/31 10:02:51;;;;;;;9.70;1.75;;;;;;;16.57;100.00;94467.38;5019850;28;20783;-78
2024/03/31 10:05:23;;;;;;;7.07;1.73;;;;;;;16.52;99.50;94467.34;5025403;28;20618;-74
2024/03/31 10:07:52;;;;;;;13.27;2.47;;;;;;;16.82;96.52;94467.56;5023416;28;20622;-75
2024/03/31 10:10:19;;;;;;;12.88;1.60;;;;;;;16.63;95.47;94469.81;5025040;28;20344;-77
2024/03/31 10:12:48;;;;;;;15.25;1.90;;;;;;;16.45;100.00;94461.44;5020267;28;20201;-77
2024/03/31 10:15:14;;;;;;;11.23;2.22;;;;;;;16.84;93.02;94460.09;5019778;28;20213;-77
2024/03/31 10:17:44;;;;;;;10.23;1.35;;;;;;;16.80;97.51;94467.00;5020696;28;20206;-78
2024/03/31 10:20:13;;;;;;;4.10;1.58;;;;;;;17.01;93.95;94444.78;5025319;28;20237;-75
2024/03/31 10:22:41;;;;;;;8.55;1.70;;;;;;;17.11;90.46;94445.63;5019251;28;20500;-75
2024/03/31 10:25:09;;;;;;;10.80;1.02;;;;;;;16.99;94.11;94434.38;5023388;28;20209;-76
2024/03/31 10:27:37;;;;;;;6.35;2.13;;;;;;;16.90;100.00;94437.78;5020098;28;20929;-75
2024/03/31 10:30:06;;;;;;;15.93;2.13;;;;;;;16.76;100.00;94434.00;5018751;28;20233;-77
2024/03/31 10:32:33;;;;;;;9.80;1.70;;;;;;;17.06;99.02;94434.16;5025284;28;20204;-74
2024/03/31 10:35:00;;;;;;;6.88;1.15;;;;;;;17.43;97.02;94436.44;5019418;28;20765;-78
2024/03/31 10:37:27;;;;;;;11.20;1.45;;;;;;;17.55;91.90;94433.56;5019679;28;20202;-75
2024/03/31 10:39:53;;;;;;;5.72;1.50;;;;;;;17.55;93.05;94422.91;5020777;28;20225;-77
2024/03/31 10:42:21;;;;;;;8.75;1.70;;;;;;;16.95;90.21;94424.53;5022869;28;20197;-77
2024/03/31 10:44:47;;;;;;;6.18;1.20;;;;;;;17.21;92.42;94425.16;5018988;28;20198;-77
2024/03/31 10:47:15;;;;;;;15.85;1.60;;;;;;;17.46;94.53;94430.59;5020860;28;20214;-76
2024/03/31 10:49:40;;;;;;;4.55;2.17;;;;;;;17.26;100.00;94438.53;5018060;28;20591;-75
2024/03/31 10:52:13;;;;;;;4.25;1.25;;;;;;;17.50;95.39;94423.72;5018208;28;20682;-78
2024/03/31 10:54:40;;;;;;;7.60;1.30;;;;;;;17.30;96.92;94418.31;5027435;28;20703;-74
2024/03/31 10:57:11;;;;;;;9.70;1.30;;;;;;;17.43;100.00;94422.34;5019060;28;20445;-78
2024/03/31 10:59:39;;;;;;;6.95;0.93;;;;;;;17.87;100.00;94425.09;5021165;28;20488;-75
2024/03/31 11:02:15;;;;;;;18.15;2.28;;;;;;;18.21;96.35;94422.75;5027011;28;20255;-79
2024/03/31 11:04:42;;;;;;;9.13;1.42;;;;;;;18.34;97.58;94418.47;5020755;28;20276;-75
2024/03/31 11:07:12;;;;;;;6.18;1.33;;;;;;;18.46;95.30;94419.00;5027063;28;20259;-75
2024/03/31 11:09:38;;;;;;;10.63;2.45;;;;;;;18.54;92.06;94426.44;5023752;28;20233;-77
2024/03/31 11:12:06;;;;;;;3.88;1.05;;;;;;;17.97;89.77;94429.63;5019193;28;20210;-75
2024/03/31 11:14:33;;;;;;;9.85;1.35;;;;;;;18.45;85.94;94412.06;5019051;28;20213;-76
2024/03/31 11:17:01;;;;;;;6.13;1.27;;;;;;;18.04;87.45;94411.53;5020149;28;20263;-76
2024/03/31 11:19:27;;;;;;;10.07;1.50;;;;;;;18.21;89.60;94404.09;5018819;28;20221;-77
2024/03/31 11:21:56;;;;;;;8.40;1.30;;;;;;;18.27;91.92;94403.03;5022429;28;20201;-77
2024/03/31 11:24:24;;;;;;;10.35;1.20;;;;;;;18.46;92.31;94412.88;5019360;28;20208;-73
2024/03/31 11:26:52;;;;;;;8.85;1.30;;;;;;;18.18;96.91;94415.28;5022207;28;20307;-77